Disclaimer

Please do not use the information listed here in-flight or in-navigation, as they are not provided to us by the airports but are provided by volunteers, so they might be outdated.

Search


Regions


Airport information page

Radio informations:
Common traffic adv. frequency (CTAF) - 122.8 MHz

Airport informations:
Latitude: 29° 37' 35.11" N
Longitude: 043° 29' 26.21" E
Elevation: 1474 feet - 449 meters
Operating hours: 24 hour operations
Operating agency: Civil government, landing fees and diplomatic clearance may be required
Timezone: UTC+3
Fuel: N/A

Runway information:
11/29 - 9834 x 147 feet< - >2997 x 45 meters

Recent METARs:
OERF 190400Z 12004KT 7000 RA BKN040 BKN100 19/11 Q1022
OERF 190400Z 12004KT 7000 RA BKN040 BKN100 19/11 Q1022
OERF 190500Z 14005KT 6000 RA BKN040 BKN100 19/12 Q1022

Airport on the map: